sensor_id;sensor_type;location;lat;lon;timestamp;temperature;humidity
37786;DHT22;23625;48.784;9.336;2023-02-28T00:01:21;-1.90;91.80
37786;DHT22;23625;48.784;9.336;2023-02-28T00:03:47;-1.90;91.90
37786;DHT22;23625;48.784;9.336;2023-02-28T00:06:12;-1.90;92.80
37786;DHT22;23625;48.784;9.336;2023-02-28T00:08:38;-2.00;94.00
37786;DHT22;23625;48.784;9.336;2023-02-28T00:11:06;-2.00;95.10
37786;DHT22;23625;48.784;9.336;2023-02-28T00:13:34;-2.00;95.50
37786;DHT22;23625;48.784;9.336;2023-02-28T00:16:05;-2.10;95.10
37786;DHT22;23625;48.784;9.336;2023-02-28T00:18:31;-2.20;95.30
37786;DHT22;23625;48.784;9.336;2023-02-28T00:20:57;-2.30;97.10
37786;DHT22;23625;48.784;9.336;2023-02-28T00:23:23;-2.30;96.80
37786;DHT22;23625;48.784;9.336;2023-02-28T00:25:50;-2.70;97.70
37786;DHT22;23625;48.784;9.336;2023-02-28T00:28:15;-2.30;98.20
37786;DHT22;23625;48.784;9.336;2023-02-28T00:30:41;-2.40;99.40
37786;DHT22;23625;48.784;9.336;2023-02-28T00:33:06;-2.50;99.90
37786;DHT22;23625;48.784;9.336;2023-02-28T00:35:32;-2.50;99.20
37786;DHT22;23625;48.784;9.336;2023-02-28T00:37:58;-2.30;99.70
37786;DHT22;23625;48.784;9.336;2023-02-28T00:40:23;-2.60;99.90
37786;DHT22;23625;48.784;9.336;2023-02-28T00:42:49;-2.60;99.90
37786;DHT22;23625;48.784;9.336;2023-02-28T00:45:14;-2.50;99.90
37786;DHT22;23625;48.784;9.336;2023-02-28T00:47:40;-2.60;99.90
37786;DHT22;23625;48.784;9.336;2023-02-28T00:50:06;-2.70;99.90
37786;DHT22;23625;48.784;9.336;2023-02-28T00:52:32;-2.60;99.90
37786;DHT22;23625;48.784;9.336;2023-02-28T00:54:58;-2.70;99.90
37786;DHT22;23625;48.784;9.336;2023-02-28T00:57:23;-2.70;99.90
37786;DHT22;23625;48.784;9.336;2023-02-28T00:59:49;-2.70;99.90
37786;DHT22;23625;48.784;9.336;2023-02-28T01:02:15;-2.70;99.90
37786;DHT22;23625;48.784;9.336;2023-02-28T01:04:40;-2.70;99.90
37786;DHT22;23625;48.784;9.336;2023-02-28T01:07:06;-2.70;99.90
37786;DHT22;23625;48.784;9.336;2023-02-28T01:09:32;-2.70;99.90
37786;DHT22;23625;48.784;9.336;2023-02-28T01:11:57;-2.70;99.90
37786;DHT22;23625;48.784;9.336;2023-02-28T01:14:23;-2.70;99.90
37786;DHT22;23625;48.784;9.336;2023-02-28T01:16:48;-2.80;99.90
37786;DHT22;23625;48.784;9.336;2023-02-28T01:19:14;-2.80;99.90
37786;DHT22;23625;48.784;9.336;2023-02-28T01:21:40;-2.90;99.90
37786;DHT22;23625;48.784;9.336;2023-02-28T01:24:06;-2.90;99.90
37786;DHT22;23625;48.784;9.336;2023-02-28T01:26:32;-2.80;99.90
37786;DHT22;23625;48.784;9.336;2023-02-28T01:28:58;-2.80;99.90
37786;DHT22;23625;48.784;9.336;2023-02-28T01:31:24;-2.90;99.90
37786;DHT22;23625;48.784;9.336;2023-02-28T01:33:50;-2.90;99.90
37786;DHT22;23625;48.784;9.336;2023-02-28T01:36:24;-2.90;99.90
37786;DHT22;23625;48.784;9.336;2023-02-28T01:38:50;-2.90;99.90
37786;DHT22;23625;48.784;9.336;2023-02-28T01:41:27;-2.90;99.90
37786;DHT22;23625;48.784;9.336;2023-02-28T01:44:00;-3.00;99.90
37786;DHT22;23625;48.784;9.336;2023-02-28T01:46:29;-3.00;99.90
37786;DHT22;23625;48.784;9.336;2023-02-28T01:51:45;-3.10;99.90
37786;DHT22;23625;48.784;9.336;2023-02-28T01:54:23;-3.10;99.90
37786;DHT22;23625;48.784;9.336;2023-02-28T01:56:56;-3.10;99.90
37786;DHT22;23625;48.784;9.336;2023-02-28T01:59:48;-3.10;99.90
37786;DHT22;23625;48.784;9.336;2023-02-28T02:02:18;-3.10;99.90
37786;DHT22;23625;48.784;9.336;2023-02-28T02:05:09;-3.00;99.90
37786;DHT22;23625;48.784;9.336;2023-02-28T02:07:37;-3.00;99.90
37786;DHT22;23625;48.784;9.336;2023-02-28T02:15:42;-3.10;99.90
37786;DHT22;23625;48.784;9.336;2023-02-28T02:21:14;-3.10;99.90
37786;DHT22;23625;48.784;9.336;2023-02-28T02:26:42;-3.10;99.90
37786;DHT22;23625;48.784;9.336;2023-02-28T02:34:39;-3.20;99.90
37786;DHT22;23625;48.784;9.336;2023-02-28T02:37:40;-3.10;99.90
37786;DHT22;23625;48.784;9.336;2023-02-28T02:40:18;-3.10;99.90
37786;DHT22;23625;48.784;9.336;2023-02-28T02:42:56;-3.10;99.90
37786;DHT22;23625;48.784;9.336;2023-02-28T02:45:29;-3.10;99.90
37786;DHT22;23625;48.784;9.336;2023-02-28T02:48:02;-3.00;99.90
37786;DHT22;23625;48.784;9.336;2023-02-28T02:50:39;-3.00;99.90
37786;DHT22;23625;48.784;9.336;2023-02-28T02:53:07;-3.00;99.90
37786;DHT22;23625;48.784;9.336;2023-02-28T02:55:38;-2.90;99.90
37786;DHT22;23625;48.784;9.336;2023-02-28T02:58:08;-2.70;99.90
37786;DHT22;23625;48.784;9.336;2023-02-28T03:00:42;-2.70;99.90
37786;DHT22;23625;48.784;9.336;2023-02-28T03:03:10;-2.80;99.90
37786;DHT22;23625;48.784;9.336;2023-02-28T03:05:42;-2.70;99.90
37786;DHT22;23625;48.784;9.336;2023-02-28T03:08:10;-2.70;99.90
37786;DHT22;23625;48.784;9.336;2023-02-28T03:10:39;-2.60;99.90
37786;DHT22;23625;48.784;9.336;2023-02-28T03:13:52;-2.50;99.90
37786;DHT22;23625;48.784;9.336;2023-02-28T03:24:57;-2.10;99.90
37786;DHT22;23625;48.784;9.336;2023-02-28T03:30:09;-2.10;99.90
37786;DHT22;23625;48.784;9.336;2023-02-28T03:32:41;-2.00;99.90
37786;DHT22;23625;48.784;9.336;2023-02-28T03:35:20;-2.00;99.90
37786;DHT22;23625;48.784;9.336;2023-02-28T03:37:51;-2.00;99.90
37786;DHT22;23625;48.784;9.336;2023-02-28T03:40:24;-1.90;99.90
37786;DHT22;23625;48.784;9.336;2023-02-28T03:42:55;-1.90;99.90
37786;DHT22;23625;48.784;9.336;2023-02-28T03:45:26;-1.80;99.90
37786;DHT22;23625;48.784;9.336;2023-02-28T03:48:07;-1.80;99.90
37786;DHT22;23625;48.784;9.336;2023-02-28T03:50:43;-1.70;99.90
37786;DHT22;23625;48.784;9.336;2023-02-28T03:53:18;-1.60;99.90
37786;DHT22;23625;48.784;9.336;2023-02-28T03:55:52;-1.60;99.90
37786;DHT22;23625;48.784;9.336;2023-02-28T04:01:30;-1.40;99.90
37786;DHT22;23625;48.784;9.336;2023-02-28T04:03:57;-1.40;99.90
37786;DHT22;23625;48.784;9.336;2023-02-28T04:06:23;-1.30;99.90
37786;DHT22;23625;48.784;9.336;2023-02-28T04:08:50;-1.30;99.90
37786;DHT22;23625;48.784;9.336;2023-02-28T04:11:35;-1.30;99.90
37786;DHT22;23625;48.784;9.336;2023-02-28T04:14:03;-1.40;99.90
37786;DHT22;23625;48.784;9.336;2023-02-28T04:16:30;-1.30;99.90
37786;DHT22;23625;48.784;9.336;2023-02-28T04:18:56;-1.20;99.90
37786;DHT22;23625;48.784;9.336;2023-02-28T04:21:28;-1.10;99.90
37786;DHT22;23625;48.784;9.336;2023-02-28T04:23:55;-1.10;99.90
37786;DHT22;23625;48.784;9.336;2023-02-28T04:26:20;-1.20;99.90
37786;DHT22;23625;48.784;9.336;2023-02-28T04:28:46;-1.10;99.90
37786;DHT22;23625;48.784;9.336;2023-02-28T04:31:11;-1.20;99.90
37786;DHT22;23625;48.784;9.336;2023-02-28T04:33:37;-1.20;99.90
37786;DHT22;23625;48.784;9.336;2023-02-28T04:36:05;-1.00;99.90
37786;DHT22;23625;48.784;9.336;2023-02-28T04:38:36;-1.10;99.90
37786;DHT22;23625;48.784;9.336;2023-02-28T04:41:02;-1.00;99.90
37786;DHT22;23625;48.784;9.336;2023-02-28T04:43:29;-1.10;99.90
37786;DHT22;23625;48.784;9.336;2023-02-28T04:45:56;-1.10;99.90
37786;DHT22;23625;48.784;9.336;2023-02-28T04:48:29;-1.10;99.90
37786;DHT22;23625;48.784;9.336;2023-02-28T04:51:03;-1.10;99.90
37786;DHT22;23625;48.784;9.336;2023-02-28T04:53:29;-1.10;99.90
37786;DHT22;23625;48.784;9.336;2023-02-28T04:55:56;-1.00;99.90
37786;DHT22;23625;48.784;9.336;2023-02-28T04:58:22;-1.00;99.90
37786;DHT22;23625;48.784;9.336;2023-02-28T05:00:51;-1.00;99.90
37786;DHT22;23625;48.784;9.336;2023-02-28T05:03:17;-1.00;99.90
37786;DHT22;23625;48.784;9.336;2023-02-28T05:05:43;-0.90;99.90
37786;DHT22;23625;48.784;9.336;2023-02-28T05:08:08;-0.90;99.90
37786;DHT22;23625;48.784;9.336;2023-02-28T05:10:35;-1.00;99.90
37786;DHT22;23625;48.784;9.336;2023-02-28T05:13:01;-1.00;99.90
37786;DHT22;23625;48.784;9.336;2023-02-28T05:15:26;-1.00;99.90
37786;DHT22;23625;48.784;9.336;2023-02-28T05:17:52;-0.90;99.90
37786;DHT22;23625;48.784;9.336;2023-02-28T05:20:17;-0.90;99.90
37786;DHT22;23625;48.784;9.336;2023-02-28T05:22:43;-1.00;99.90
37786;DHT22;23625;48.784;9.336;2023-02-28T05:25:15;-0.90;99.90
37786;DHT22;23625;48.784;9.336;2023-02-28T05:27:42;-0.90;99.90
37786;DHT22;23625;48.784;9.336;2023-02-28T05:30:08;-0.90;99.90
37786;DHT22;23625;48.784;9.336;2023-02-28T05:32:36;-0.90;99.90
37786;DHT22;23625;48.784;9.336;2023-02-28T05:35:03;-0.80;99.90
37786;DHT22;23625;48.784;9.336;2023-02-28T05:37:28;-0.80;99.90
37786;DHT22;23625;48.784;9.336;2023-02-28T05:39:54;-0.80;99.90
37786;DHT22;23625;48.784;9.336;2023-02-28T05:42:20;-0.80;99.90
37786;DHT22;23625;48.784;9.336;2023-02-28T05:44:46;-0.80;99.90
37786;DHT22;23625;48.784;9.336;2023-02-28T05:47:11;-0.90;99.90
37786;DHT22;23625;48.784;9.336;2023-02-28T05:49:41;-0.80;99.90
37786;DHT22;23625;48.784;9.336;2023-02-28T05:52:06;-0.80;99.90
37786;DHT22;23625;48.784;9.336;2023-02-28T05:54:32;-0.80;99.90
37786;DHT22;23625;48.784;9.336;2023-02-28T05:56:58;-0.70;99.90
37786;DHT22;23625;48.784;9.336;2023-02-28T05:59:23;-0.70;99.90
37786;DHT22;23625;48.784;9.336;2023-02-28T06:01:49;-0.70;99.90
37786;DHT22;23625;48.784;9.336;2023-02-28T06:04:16;-0.70;99.90
37786;DHT22;23625;48.784;9.336;2023-02-28T06:06:45;-0.70;99.90
37786;DHT22;23625;48.784;9.336;2023-02-28T06:09:11;-0.70;99.90
37786;DHT22;23625;48.784;9.336;2023-02-28T06:11:36;-0.70;99.90
37786;DHT22;23625;48.784;9.336;2023-02-28T06:14:03;-0.60;99.90
37786;DHT22;23625;48.784;9.336;2023-02-28T06:16:31;-0.70;99.90
37786;DHT22;23625;48.784;9.336;2023-02-28T06:18:58;-0.70;99.90
37786;DHT22;23625;48.784;9.336;2023-02-28T06:21:25;-0.60;99.90
37786;DHT22;23625;48.784;9.336;2023-02-28T06:23:50;-0.60;99.90
37786;DHT22;23625;48.784;9.336;2023-02-28T06:26:16;-0.60;99.90
37786;DHT22;23625;48.784;9.336;2023-02-28T06:28:42;-0.60;99.90
37786;DHT22;23625;48.784;9.336;2023-02-28T06:31:09;-0.60;99.90
37786;DHT22;23625;48.784;9.336;2023-02-28T06:33:37;-0.60;99.90
37786;DHT22;23625;48.784;9.336;2023-02-28T06:36:03;-0.60;99.90
37786;DHT22;23625;48.784;9.336;2023-02-28T06:38:29;-0.60;99.90
37786;DHT22;23625;48.784;9.336;2023-02-28T06:40:56;-0.50;99.90
37786;DHT22;23625;48.784;9.336;2023-02-28T06:43:24;-0.50;99.90
37786;DHT22;23625;48.784;9.336;2023-02-28T06:45:50;-0.40;99.90
37786;DHT22;23625;48.784;9.336;2023-02-28T06:48:16;-0.40;99.90
37786;DHT22;23625;48.784;9.336;2023-02-28T06:50:42;-0.40;99.90
37786;DHT22;23625;48.784;9.336;2023-02-28T06:53:07;-0.40;99.90
37786;DHT22;23625;48.784;9.336;2023-02-28T06:55:33;-0.40;99.90
37786;DHT22;23625;48.784;9.336;2023-02-28T06:57:58;-0.40;99.90
37786;DHT22;23625;48.784;9.336;2023-02-28T07:00:24;-0.40;99.90
37786;DHT22;23625;48.784;9.336;2023-02-28T07:02:50;-0.40;99.90
37786;DHT22;23625;48.784;9.336;2023-02-28T07:05:16;-0.40;99.90
37786;DHT22;23625;48.784;9.336;2023-02-28T07:07:41;-0.30;99.90
37786;DHT22;23625;48.784;9.336;2023-02-28T07:10:12;-0.30;99.90
37786;DHT22;23625;48.784;9.336;2023-02-28T07:12:42;-0.30;99.90
37786;DHT22;23625;48.784;9.336;2023-02-28T07:15:09;-0.30;99.90
37786;DHT22;23625;48.784;9.336;2023-02-28T07:17:34;-0.20;99.90
37786;DHT22;23625;48.784;9.336;2023-02-28T07:20:00;-0.20;99.60
37786;DHT22;23625;48.784;9.336;2023-02-28T07:22:26;-0.20;99.90
37786;DHT22;23625;48.784;9.336;2023-02-28T07:24:51;-0.20;99.90
37786;DHT22;23625;48.784;9.336;2023-02-28T07:27:17;-0.20;99.80
37786;DHT22;23625;48.784;9.336;2023-02-28T07:29:49;-0.20;99.80
37786;DHT22;23625;48.784;9.336;2023-02-28T07:32:15;-0.20;99.50
37786;DHT22;23625;48.784;9.336;2023-02-28T07:34:41;-0.20;99.60
37786;DHT22;23625;48.784;9.336;2023-02-28T07:37:06;-0.10;99.70
37786;DHT22;23625;48.784;9.336;2023-02-28T07:39:32;-0.20;99.50
37786;DHT22;23625;48.784;9.336;2023-02-28T07:41:58;-0.10;99.50
37786;DHT22;23625;48.784;9.336;2023-02-28T07:44:25;-0.10;99.10
37786;DHT22;23625;48.784;9.336;2023-02-28T07:46:51;-0.10;99.20
37786;DHT22;23625;48.784;9.336;2023-02-28T07:49:18;-0.10;98.70
37786;DHT22;23625;48.784;9.336;2023-02-28T07:51:43;0.00;98.10
37786;DHT22;23625;48.784;9.336;2023-02-28T07:54:09;0.00;97.90
37786;DHT22;23625;48.784;9.336;2023-02-28T07:56:34;0.00;98.30
37786;DHT22;23625;48.784;9.336;2023-02-28T07:59:00;0.00;98.30
37786;DHT22;23625;48.784;9.336;2023-02-28T08:01:26;0.00;98.00
37786;DHT22;23625;48.784;9.336;2023-02-28T08:03:52;0.00;98.30
37786;DHT22;23625;48.784;9.336;2023-02-28T08:06:21;0.00;98.20
37786;DHT22;23625;48.784;9.336;2023-02-28T08:08:48;0.00;98.10
37786;DHT22;23625;48.784;9.336;2023-02-28T08:11:15;0.10;97.20
37786;DHT22;23625;48.784;9.336;2023-02-28T08:13:41;0.10;97.50
37786;DHT22;23625;48.784;9.336;2023-02-28T08:16:09;0.00;97.20
37786;DHT22;23625;48.784;9.336;2023-02-28T08:18:35;0.00;97.20
37786;DHT22;23625;48.784;9.336;2023-02-28T08:21:06;0.10;97.10
37786;DHT22;23625;48.784;9.336;2023-02-28T08:23:32;0.10;97.30
37786;DHT22;23625;48.784;9.336;2023-02-28T08:25:59;0.20;95.70
37786;DHT22;23625;48.784;9.336;2023-02-28T08:28:24;0.20;96.60
37786;DHT22;23625;48.784;9.336;2023-02-28T08:30:50;0.20;96.70
37786;DHT22;23625;48.784;9.336;2023-02-28T08:33:16;0.30;96.10
37786;DHT22;23625;48.784;9.336;2023-02-28T08:35:41;0.30;96.60
37786;DHT22;23625;48.784;9.336;2023-02-28T08:38:07;0.40;96.00
37786;DHT22;23625;48.784;9.336;2023-02-28T08:40:32;0.30;96.00
37786;DHT22;23625;48.784;9.336;2023-02-28T08:42:58;0.40;95.20
37786;DHT22;23625;48.784;9.336;2023-02-28T08:45:25;0.30;95.70
37786;DHT22;23625;48.784;9.336;2023-02-28T08:47:50;0.40;95.20
37786;DHT22;23625;48.784;9.336;2023-02-28T08:50:18;0.40;95.30
37786;DHT22;23625;48.784;9.336;2023-02-28T08:52:44;0.40;95.60
37786;DHT22;23625;48.784;9.336;2023-02-28T08:55:10;0.50;94.70
37786;DHT22;23625;48.784;9.336;2023-02-28T08:57:36;0.50;95.20
37786;DHT22;23625;48.784;9.336;2023-02-28T09:00:03;0.50;95.20
37786;DHT22;23625;48.784;9.336;2023-02-28T09:02:30;0.60;94.00
37786;DHT22;23625;48.784;9.336;2023-02-28T09:04:56;0.60;93.20
37786;DHT22;23625;48.784;9.336;2023-02-28T09:07:22;0.70;93.40
37786;DHT22;23625;48.784;9.336;2023-02-28T09:09:48;0.70;92.30
37786;DHT22;23625;48.784;9.336;2023-02-28T09:12:21;0.70;91.40
37786;DHT22;23625;48.784;9.336;2023-02-28T09:14:47;0.80;91.50
37786;DHT22;23625;48.784;9.336;2023-02-28T09:17:13;0.80;91.60
37786;DHT22;23625;48.784;9.336;2023-02-28T09:19:38;0.90;91.70
37786;DHT22;23625;48.784;9.336;2023-02-28T09:22:04;0.90;91.10
37786;DHT22;23625;48.784;9.336;2023-02-28T09:24:29;0.90;91.00
37786;DHT22;23625;48.784;9.336;2023-02-28T09:26:57;1.00;91.30
37786;DHT22;23625;48.784;9.336;2023-02-28T09:29:22;1.10;90.10
37786;DHT22;23625;48.784;9.336;2023-02-28T09:31:48;1.10;90.50
37786;DHT22;23625;48.784;9.336;2023-02-28T09:34:13;1.30;89.00
37786;DHT22;23625;48.784;9.336;2023-02-28T09:36:39;1.30;87.30
37786;DHT22;23625;48.784;9.336;2023-02-28T09:39:05;1.30;86.40
37786;DHT22;23625;48.784;9.336;2023-02-28T09:41:41;1.40;85.70
37786;DHT22;23625;48.784;9.336;2023-02-28T09:46:49;1.30;84.60
37786;DHT22;23625;48.784;9.336;2023-02-28T09:49:22;1.30;84.70
37786;DHT22;23625;48.784;9.336;2023-02-28T09:52:12;1.50;84.40
37786;DHT22;23625;48.784;9.336;2023-02-28T09:54:39;1.50;84.70
37786;DHT22;23625;48.784;9.336;2023-02-28T09:57:19;1.60;83.20
37786;DHT22;23625;48.784;9.336;2023-02-28T10:08:30;1.70;79.40
37786;DHT22;23625;48.784;9.336;2023-02-28T10:11:00;1.80;80.80
37786;DHT22;23625;48.784;9.336;2023-02-28T10:21:49;2.20;78.70
37786;DHT22;23625;48.784;9.336;2023-02-28T10:24:32;2.30;77.80
37786;DHT22;23625;48.784;9.336;2023-02-28T10:29:48;2.30;76.70
37786;DHT22;23625;48.784;9.336;2023-02-28T10:32:17;2.40;76.90
37786;DHT22;23625;48.784;9.336;2023-02-28T10:34:43;2.40;76.40
37786;DHT22;23625;48.784;9.336;2023-02-28T10:37:10;2.50;76.30
37786;DHT22;23625;48.784;9.336;2023-02-28T10:39:42;2.50;76.00
37786;DHT22;23625;48.784;9.336;2023-02-28T10:42:28;2.50;74.90
37786;DHT22;23625;48.784;9.336;2023-02-28T10:47:53;2.50;75.20
37786;DHT22;23625;48.784;9.336;2023-02-28T10:55:58;2.70;74.10
37786;DHT22;23625;48.784;9.336;2023-02-28T10:58:27;2.90;74.60
37786;DHT22;23625;48.784;9.336;2023-02-28T11:00:53;2.90;72.80
37786;DHT22;23625;48.784;9.336;2023-02-28T11:03:32;2.90;73.00
37786;DHT22;23625;48.784;9.336;2023-02-28T11:06:03;3.00;72.10
37786;DHT22;23625;48.784;9.336;2023-02-28T11:08:29;3.40;72.30
37786;DHT22;23625;48.784;9.336;2023-02-28T11:10:57;3.70;71.00
37786;DHT22;23625;48.784;9.336;2023-02-28T11:13:31;3.90;69.90
37786;DHT22;23625;48.784;9.336;2023-02-28T11:16:02;3.90;68.80
37786;DHT22;23625;48.784;9.336;2023-02-28T11:21:02;4.00;68.50
37786;DHT22;23625;48.784;9.336;2023-02-28T11:23:31;4.00;68.80
37786;DHT22;23625;48.784;9.336;2023-02-28T11:26:00;4.00;68.40
37786;DHT22;23625;48.784;9.336;2023-02-28T11:28:32;4.10;67.90
37786;DHT22;23625;48.784;9.336;2023-02-28T11:33:54;5.10;67.90
37786;DHT22;23625;48.784;9.336;2023-02-28T11:36:30;5.60;64.40
37786;DHT22;23625;48.784;9.336;2023-02-28T11:39:00;6.00;63.00
37786;DHT22;23625;48.784;9.336;2023-02-28T11:41:38;6.30;62.10
37786;DHT22;23625;48.784;9.336;2023-02-28T11:46:56;6.60;60.40
37786;DHT22;23625;48.784;9.336;2023-02-28T12:06:50;6.70;58.40
37786;DHT22;23625;48.784;9.336;2023-02-28T12:20:43;6.70;58.30
37786;DHT22;23625;48.784;9.336;2023-02-28T12:28:46;7.00;57.50
37786;DHT22;23625;48.784;9.336;2023-02-28T12:31:38;7.00;57.40
37786;DHT22;23625;48.784;9.336;2023-02-28T12:34:22;7.00;57.00
37786;DHT22;23625;48.784;9.336;2023-02-28T12:36:52;7.00;56.80
37786;DHT22;23625;48.784;9.336;2023-02-28T12:39:28;7.10;56.90
37786;DHT22;23625;48.784;9.336;2023-02-28T12:41:56;7.20;56.60
37786;DHT22;23625;48.784;9.336;2023-02-28T12:44:35;7.40;56.20
37786;DHT22;23625;48.784;9.336;2023-02-28T12:47:04;7.40;55.70
37786;DHT22;23625;48.784;9.336;2023-02-28T12:49:36;7.70;55.90
37786;DHT22;23625;48.784;9.336;2023-02-28T12:52:04;7.60;55.40
37786;DHT22;23625;48.784;9.336;2023-02-28T12:54:46;7.70;54.70
37786;DHT22;23625;48.784;9.336;2023-02-28T12:57:45;7.50;54.70
37786;DHT22;23625;48.784;9.336;2023-02-28T13:00:16;7.40;55.20
37786;DHT22;23625;48.784;9.336;2023-02-28T13:11:06;7.60;54.30
37786;DHT22;23625;48.784;9.336;2023-02-28T13:13:32;7.60;54.30
37786;DHT22;23625;48.784;9.336;2023-02-28T13:18:44;8.10;53.80
37786;DHT22;23625;48.784;9.336;2023-02-28T13:21:23;8.10;53.20
37786;DHT22;23625;48.784;9.336;2023-02-28T13:27:10;8.40;53.20
37786;DHT22;23625;48.784;9.336;2023-02-28T13:34:40;8.50;52.40
37786;DHT22;23625;48.784;9.336;2023-02-28T13:39:58;8.60;52.10
37786;DHT22;23625;48.784;9.336;2023-02-28T13:42:32;8.50;52.30
37786;DHT22;23625;48.784;9.336;2023-02-28T13:47:55;8.60;52.30
37786;DHT22;23625;48.784;9.336;2023-02-28T13:50:36;8.70;52.00
37786;DHT22;23625;48.784;9.336;2023-02-28T13:58:43;8.70;51.30
37786;DHT22;23625;48.784;9.336;2023-02-28T14:01:14;8.60;51.60
37786;DHT22;23625;48.784;9.336;2023-02-28T14:06:51;8.70;51.50
37786;DHT22;23625;48.784;9.336;2023-02-28T14:09:38;8.60;51.50
37786;DHT22;23625;48.784;9.336;2023-02-28T14:20:47;8.40;52.40
37786;DHT22;23625;48.784;9.336;2023-02-28T14:23:22;8.50;51.80
37786;DHT22;23625;48.784;9.336;2023-02-28T14:26:07;8.30;52.10
37786;DHT22;23625;48.784;9.336;2023-02-28T14:31:41;8.20;52.40
37786;DHT22;23625;48.784;9.336;2023-02-28T14:36:41;8.20;52.60
37786;DHT22;23625;48.784;9.336;2023-02-28T14:39:15;8.20;52.50
37786;DHT22;23625;48.784;9.336;2023-02-28T14:41:43;8.20;52.30
37786;DHT22;23625;48.784;9.336;2023-02-28T14:44:21;8.10;52.50
37786;DHT22;23625;48.784;9.336;2023-02-28T14:46:53;8.10;52.40
37786;DHT22;23625;48.784;9.336;2023-02-28T14:49:32;8.10;52.70
37786;DHT22;23625;48.784;9.336;2023-02-28T14:52:21;8.10;52.90
37786;DHT22;23625;48.784;9.336;2023-02-28T14:55:14;8.20;52.80
37786;DHT22;23625;48.784;9.336;2023-02-28T14:57:54;8.00;52.60
37786;DHT22;23625;48.784;9.336;2023-02-28T15:00:29;7.70;52.60
37786;DHT22;23625;48.784;9.336;2023-02-28T15:02:56;7.60;53.20
37786;DHT22;23625;48.784;9.336;2023-02-28T15:05:30;7.50;53.70
37786;DHT22;23625;48.784;9.336;2023-02-28T15:10:31;7.20;54.10
37786;DHT22;23625;48.784;9.336;2023-02-28T15:15:40;6.90;54.60
37786;DHT22;23625;48.784;9.336;2023-02-28T15:18:10;6.80;54.80
37786;DHT22;23625;48.784;9.336;2023-02-28T15:20:39;6.80;55.40
37786;DHT22;23625;48.784;9.336;2023-02-28T15:23:06;6.70;55.80
37786;DHT22;23625;48.784;9.336;2023-02-28T15:25:32;6.80;56.10
37786;DHT22;23625;48.784;9.336;2023-02-28T15:27:57;6.70;56.10
37786;DHT22;23625;48.784;9.336;2023-02-28T15:30:27;6.60;56.80
37786;DHT22;23625;48.784;9.336;2023-02-28T15:33:22;6.60;56.80
37786;DHT22;23625;48.784;9.336;2023-02-28T15:35:49;6.50;57.00
37786;DHT22;23625;48.784;9.336;2023-02-28T15:38:26;6.40;57.30
37786;DHT22;23625;48.784;9.336;2023-02-28T15:40:54;6.40;57.60
37786;DHT22;23625;48.784;9.336;2023-02-28T15:43:33;6.30;57.90
37786;DHT22;23625;48.784;9.336;2023-02-28T15:46:03;6.30;58.00
37786;DHT22;23625;48.784;9.336;2023-02-28T15:51:30;6.10;58.50
37786;DHT22;23625;48.784;9.336;2023-02-28T15:53:59;6.10;59.00
37786;DHT22;23625;48.784;9.336;2023-02-28T15:56:30;6.00;59.40
37786;DHT22;23625;48.784;9.336;2023-02-28T15:59:02;5.90;59.40
37786;DHT22;23625;48.784;9.336;2023-02-28T16:01:36;5.80;59.60
37786;DHT22;23625;48.784;9.336;2023-02-28T16:04:14;5.80;60.10
37786;DHT22;23625;48.784;9.336;2023-02-28T16:07:02;5.70;60.00
37786;DHT22;23625;48.784;9.336;2023-02-28T16:09:27;5.70;60.30
37786;DHT22;23625;48.784;9.336;2023-02-28T16:11:55;5.60;60.30
37786;DHT22;23625;48.784;9.336;2023-02-28T16:14:25;5.50;60.60
37786;DHT22;23625;48.784;9.336;2023-02-28T16:16:55;5.40;61.00
37786;DHT22;23625;48.784;9.336;2023-02-28T16:19:22;5.30;61.30
37786;DHT22;23625;48.784;9.336;2023-02-28T16:21:48;5.30;61.20
37786;DHT22;23625;48.784;9.336;2023-02-28T16:24:14;5.20;61.30
37786;DHT22;23625;48.784;9.336;2023-02-28T16:26:41;5.10;61.60
37786;DHT22;23625;48.784;9.336;2023-02-28T16:29:10;5.10;61.80
37786;DHT22;23625;48.784;9.336;2023-02-28T16:31:38;5.10;61.90
37786;DHT22;23625;48.784;9.336;2023-02-28T16:34:04;5.00;62.10
37786;DHT22;23625;48.784;9.336;2023-02-28T16:36:32;5.00;62.30
37786;DHT22;23625;48.784;9.336;2023-02-28T16:38:58;4.90;62.70
37786;DHT22;23625;48.784;9.336;2023-02-28T16:41:26;4.80;63.00
37786;DHT22;23625;48.784;9.336;2023-02-28T16:43:54;4.80;63.00
37786;DHT22;23625;48.784;9.336;2023-02-28T16:46:24;4.80;63.20
37786;DHT22;23625;48.784;9.336;2023-02-28T16:48:50;4.70;63.50
37786;DHT22;23625;48.784;9.336;2023-02-28T16:51:17;4.60;63.80
37786;DHT22;23625;48.784;9.336;2023-02-28T16:53:44;4.60;63.90
37786;DHT22;23625;48.784;9.336;2023-02-28T16:56:26;4.50;64.10
37786;DHT22;23625;48.784;9.336;2023-02-28T16:58:57;4.50;64.30
37786;DHT22;23625;48.784;9.336;2023-02-28T17:01:24;4.40;64.70
37786;DHT22;23625;48.784;9.336;2023-02-28T17:03:50;4.40;64.90
37786;DHT22;23625;48.784;9.336;2023-02-28T17:06:22;4.20;65.20
37786;DHT22;23625;48.784;9.336;2023-02-28T17:08:50;4.20;65.70
37786;DHT22;23625;48.784;9.336;2023-02-28T17:11:16;4.10;66.50
37786;DHT22;23625;48.784;9.336;2023-02-28T17:13:42;4.10;66.20
37786;DHT22;23625;48.784;9.336;2023-02-28T17:16:25;4.00;66.10
37786;DHT22;23625;48.784;9.336;2023-02-28T17:19:01;3.90;66.20
37786;DHT22;23625;48.784;9.336;2023-02-28T17:21:28;3.90;66.50
37786;DHT22;23625;48.784;9.336;2023-02-28T17:23:54;3.80;66.70
37786;DHT22;23625;48.784;9.336;2023-02-28T17:26:21;3.80;67.00
37786;DHT22;23625;48.784;9.336;2023-02-28T17:28:50;3.70;67.30
37786;DHT22;23625;48.784;9.336;2023-02-28T17:31:16;3.70;67.50
37786;DHT22;23625;48.784;9.336;2023-02-28T17:33:42;3.60;67.60
37786;DHT22;23625;48.784;9.336;2023-02-28T17:36:16;3.60;67.90
37786;DHT22;23625;48.784;9.336;2023-02-28T17:38:42;3.50;68.10
37786;DHT22;23625;48.784;9.336;2023-02-28T17:41:10;3.50;68.50
37786;DHT22;23625;48.784;9.336;2023-02-28T17:43:36;3.40;69.30
37786;DHT22;23625;48.784;9.336;2023-02-28T17:46:01;3.40;70.20
37786;DHT22;23625;48.784;9.336;2023-02-28T17:48:27;3.40;70.80
37786;DHT22;23625;48.784;9.336;2023-02-28T17:50:53;3.10;71.60
37786;DHT22;23625;48.784;9.336;2023-02-28T17:53:19;2.90;73.10
37786;DHT22;23625;48.784;9.336;2023-02-28T17:55:48;2.70;75.50
37786;DHT22;23625;48.784;9.336;2023-02-28T17:58:14;2.50;77.50
37786;DHT22;23625;48.784;9.336;2023-02-28T18:00:40;2.30;79.40
37786;DHT22;23625;48.784;9.336;2023-02-28T18:03:05;2.20;82.60
37786;DHT22;23625;48.784;9.336;2023-02-28T18:05:31;2.00;82.70
37786;DHT22;23625;48.784;9.336;2023-02-28T18:07:57;2.00;85.20
37786;DHT22;23625;48.784;9.336;2023-02-28T18:10:23;1.90;88.80
37786;DHT22;23625;48.784;9.336;2023-02-28T18:12:50;1.70;90.10
37786;DHT22;23625;48.784;9.336;2023-02-28T18:15:18;1.60;89.80
37786;DHT22;23625;48.784;9.336;2023-02-28T18:17:46;1.50;90.80
37786;DHT22;23625;48.784;9.336;2023-02-28T18:20:12;1.30;93.20
37786;DHT22;23625;48.784;9.336;2023-02-28T18:22:39;1.30;92.80
37786;DHT22;23625;48.784;9.336;2023-02-28T18:25:07;1.20;94.00
37786;DHT22;23625;48.784;9.336;2023-02-28T18:27:34;1.00;95.80
37786;DHT22;23625;48.784;9.336;2023-02-28T18:30:01;1.00;96.40
37786;DHT22;23625;48.784;9.336;2023-02-28T18:32:28;0.90;97.60
37786;DHT22;23625;48.784;9.336;2023-02-28T18:34:53;0.80;98.10
37786;DHT22;23625;48.784;9.336;2023-02-28T18:37:19;0.80;98.90